This is the latest recevied weather packets stored in our database for station/object VK3HAG. If no packets are shown the sender has not sent any weather packets the latest 10 day(s).
| Time | Temp. | Humidity | Pressure | Rain* | Wind** | Luminosity | Snow |
|---|---|---|---|---|---|---|---|
| 1777508104 | 21.11° C | 62% | 1025.9 hPa | 0 mm | - | - | - |
| 1777507204 | 21.11° C | 63% | 1026 hPa | 0 mm | - | - | - |
| 1777506304 | 20° C | 66% | 1026.1 hPa | 0 mm | - | - | - |
| 1777505405 | 18.89° C | 70% | 1026.2 hPa | 0 mm | - | - | - |
| 1777504505 | 17.78° C | 76% | 1026.1 hPa | 0 mm | - | - | - |
| 1777503605 | 15.56° C | 85% | 1026.2 hPa | 0 mm | - | - | - |
| 1777502705 | 13.89° C | 91% | 1026.2 hPa | 0 mm | - | - | - |
| 1777501805 | 12.78° C | 94% | 1026.1 hPa | 0 mm | - | - | - |
| 1777500904 | 11.67° C | 95% | 1026 hPa | 0 mm | - | - | - |
| 1777500005 | 10.56° C | 95% | 1025.8 hPa | 0 mm | - | - | - |
| 1777499104 | 10° C | 95% | 1025.6 hPa | 0 mm | - | - | - |
| 1777498205 | 9.44° C | 94% | 1025.5 hPa | 0 mm | - | - | - |
| 1777497304 | 8.89° C | 93% | 1025.5 hPa | 0 mm | - | - | - |
| 1777496405 | 8.89° C | 94% | 1025.3 hPa | 0 mm | - | - | - |
| 1777495505 | 9.44° C | 94% | 1025.2 hPa | 0 mm | - | - | - |
| 1777494605 | 9.44° C | 94% | 1025.1 hPa | 0 mm | - | - | - |
| 1777493705 | 8.89° C | 94% | 1025 hPa | 0 mm | - | - | - |
| 1777492805 | 8.89° C | 94% | 1025 hPa | 0 mm | - | - | - |
| 1777491904 | 8.33° C | 94% | 1024.9 hPa | 0 mm | - | - | - |
| 1777491004 | 8.33° C | 94% | 1024.9 hPa | 0 mm | - | - | - |
| 1777490105 | 8.33° C | 94% | 1024.8 hPa | 0 mm | - | - | - |
| 1777489204 | 8.33° C | 93% | 1024.7 hPa | 0 mm | - | - | - |
| 1777488305 | 8.33° C | 93% | 1024.6 hPa | 0 mm | - | - | - |
| 1777487405 | 8.33° C | 93% | 1024.7 hPa | 0 mm | - | - | - |
| 1777486504 | 8.33° C | 93% | 1024.7 hPa | 0 mm | - | - | - |
* Rain latest hour (hover to see other rain measurements)
** Current wind speed in m/s (hover to see current wind gust speed)